sensor_id;sensor_type;location;lat;lon;timestamp;pressure;altitude;pressure_sealevel;temperature;humidity
78623;BME280;67943;54.412;9.502;2023-06-14T00:02:33;101865.22;;;15.93;63.46
78623;BME280;67943;54.412;9.502;2023-06-14T00:07:36;101871.72;;;15.83;64.15
78623;BME280;67943;54.412;9.502;2023-06-14T00:12:38;101879.84;;;15.75;64.59
78623;BME280;67943;54.412;9.502;2023-06-14T00:17:41;101873.84;;;15.69;64.51
78623;BME280;67943;54.412;9.502;2023-06-14T00:22:45;101877.47;;;15.65;65.01
78623;BME280;67943;54.412;9.502;2023-06-14T00:27:46;101882.97;;;15.59;65.30
78623;BME280;67943;54.412;9.502;2023-06-14T00:32:49;101884.81;;;15.53;65.64
78623;BME280;67943;54.412;9.502;2023-06-14T00:37:51;101888.53;;;15.46;66.28
78623;BME280;67943;54.412;9.502;2023-06-14T00:42:54;101895.78;;;15.38;66.89
78623;BME280;67943;54.412;9.502;2023-06-14T00:47:57;101883.50;;;15.34;67.58
78623;BME280;67943;54.412;9.502;2023-06-14T00:53:00;101893.38;;;15.29;67.98
78623;BME280;67943;54.412;9.502;2023-06-14T00:58:02;101889.03;;;15.25;68.86
78623;BME280;67943;54.412;9.502;2023-06-14T01:03:05;101892.75;;;15.18;69.19
78623;BME280;67943;54.412;9.502;2023-06-14T01:08:17;101888.38;;;15.15;69.88
78623;BME280;67943;54.412;9.502;2023-06-14T01:13:28;101894.63;;;15.13;70.37
78623;BME280;67943;54.412;9.502;2023-06-14T01:18:32;101896.50;;;15.08;70.84
78623;BME280;67943;54.412;9.502;2023-06-14T01:23:35;101892.97;;;15.07;71.70
78623;BME280;67943;54.412;9.502;2023-06-14T01:28:36;101900.22;;;15.01;72.54
78623;BME280;67943;54.412;9.502;2023-06-14T01:33:38;101903.78;;;15.00;72.99
78623;BME280;67943;54.412;9.502;2023-06-14T01:38:42;101897.59;;;14.99;73.59
78623;BME280;67943;54.412;9.502;2023-06-14T01:43:45;101898.66;;;14.91;74.07
78623;BME280;67943;54.412;9.502;2023-06-14T01:48:47;101893.44;;;14.88;74.23
78623;BME280;67943;54.412;9.502;2023-06-14T01:53:50;101898.78;;;14.84;74.42
78623;BME280;67943;54.412;9.502;2023-06-14T01:58:52;101897.03;;;14.83;74.44
78623;BME280;67943;54.412;9.502;2023-06-14T02:03:53;101895.25;;;14.85;74.51
78623;BME280;67943;54.412;9.502;2023-06-14T02:08:56;101898.78;;;14.84;74.68
78623;BME280;67943;54.412;9.502;2023-06-14T02:13:58;101898.78;;;14.84;74.65
78623;BME280;67943;54.412;9.502;2023-06-14T02:19:00;101897.00;;;14.85;74.75
78623;BME280;67943;54.412;9.502;2023-06-14T02:24:03;101902.34;;;14.83;74.95
78623;BME280;67943;54.412;9.502;2023-06-14T02:29:05;101902.41;;;14.80;75.21
78623;BME280;67943;54.412;9.502;2023-06-14T02:34:08;101906.84;;;14.80;75.14
78623;BME280;67943;54.412;9.502;2023-06-14T02:39:12;101902.53;;;14.74;75.41
78623;BME280;67943;54.412;9.502;2023-06-14T02:44:14;101900.78;;;14.73;75.36
78623;BME280;67943;54.412;9.502;2023-06-14T02:49:17;101905.28;;;14.71;75.50
78623;BME280;67943;54.412;9.502;2023-06-14T02:54:20;101899.19;;;14.66;76.00
78623;BME280;67943;54.412;9.502;2023-06-14T02:59:22;101911.59;;;14.64;75.92
78623;BME280;67943;54.412;9.502;2023-06-14T03:04:25;101909.84;;;14.63;75.83
78623;BME280;67943;54.412;9.502;2023-06-14T03:09:28;101906.31;;;14.64;75.72
78623;BME280;67943;54.412;9.502;2023-06-14T03:14:31;101916.03;;;14.64;75.69
78623;BME280;67943;54.412;9.502;2023-06-14T03:19:32;101920.44;;;14.63;75.62
78623;BME280;67943;54.412;9.502;2023-06-14T03:24:35;101910.66;;;14.67;75.36
78623;BME280;67943;54.412;9.502;2023-06-14T03:29:37;101918.59;;;14.68;75.56
78623;BME280;67943;54.412;9.502;2023-06-14T03:34:39;101914.16;;;14.69;75.39
78623;BME280;67943;54.412;9.502;2023-06-14T03:39:42;101921.16;;;14.71;75.38
78623;BME280;67943;54.412;9.502;2023-06-14T03:44:46;101925.47;;;14.75;75.29
78623;BME280;67943;54.412;9.502;2023-06-14T03:49:48;101936.84;;;14.80;75.43
78623;BME280;67943;54.412;9.502;2023-06-14T03:54:51;101950.88;;;14.85;75.55
78623;BME280;67943;54.412;9.502;2023-06-14T03:59:53;101940.25;;;14.87;75.48
78623;BME280;67943;54.412;9.502;2023-06-14T04:04:54;101941.06;;;14.91;75.52
78623;BME280;67943;54.412;9.502;2023-06-14T04:09:57;101946.31;;;14.94;75.46
78623;BME280;67943;54.412;9.502;2023-06-14T04:14:58;101955.81;;;15.02;75.25
78623;BME280;67943;54.412;9.502;2023-06-14T04:20:02;101958.25;;;15.13;74.96
78623;BME280;67943;54.412;9.502;2023-06-14T04:25:06;101965.16;;;15.20;74.95
78623;BME280;67943;54.412;9.502;2023-06-14T04:30:09;101968.59;;;15.25;75.08
78623;BME280;67943;54.412;9.502;2023-06-14T04:35:10;101967.56;;;15.31;75.12
78623;BME280;67943;54.412;9.502;2023-06-14T04:40:13;101971.72;;;15.42;75.07
78623;BME280;67943;54.412;9.502;2023-06-14T04:45:15;101962.78;;;15.46;75.13
78623;BME280;67943;54.412;9.502;2023-06-14T04:50:17;101971.38;;;15.59;75.00
78623;BME280;67943;54.412;9.502;2023-06-14T04:55:19;101976.41;;;15.70;74.83
78623;BME280;67943;54.412;9.502;2023-06-14T05:00:21;101976.25;;;15.76;74.81
78623;BME280;67943;54.412;9.502;2023-06-14T05:05:23;101975.78;;;15.94;74.38
78623;BME280;67943;54.412;9.502;2023-06-14T05:10:26;101969.41;;;16.03;74.14
78623;BME280;67943;54.412;9.502;2023-06-14T05:15:28;101975.09;;;16.21;73.81
78623;BME280;67943;54.412;9.502;2023-06-14T05:20:29;101981.84;;;16.35;73.78
78623;BME280;67943;54.412;9.502;2023-06-14T05:25:32;101975.13;;;16.52;73.28
78623;BME280;67943;54.412;9.502;2023-06-14T05:30:34;101982.78;;;16.66;72.80
78623;BME280;67943;54.412;9.502;2023-06-14T05:35:35;101977.91;;;16.80;71.84
78623;BME280;67943;54.412;9.502;2023-06-14T05:40:39;101984.59;;;16.95;71.58
78623;BME280;67943;54.412;9.502;2023-06-14T05:45:41;101983.00;;;17.19;70.31
78623;BME280;67943;54.412;9.502;2023-06-14T05:50:42;101987.03;;;17.32;69.85
78623;BME280;67943;54.412;9.502;2023-06-14T05:55:45;101985.78;;;17.44;69.59
78623;BME280;67943;54.412;9.502;2023-06-14T06:00:46;101988.72;;;17.63;69.02
78623;BME280;67943;54.412;9.502;2023-06-14T06:05:48;101984.78;;;17.76;68.44
78623;BME280;67943;54.412;9.502;2023-06-14T06:10:51;101992.16;;;17.94;67.68
78623;BME280;67943;54.412;9.502;2023-06-14T06:15:52;101997.59;;;18.17;66.35
78623;BME280;67943;54.412;9.502;2023-06-14T06:20:54;101992.53;;;18.35;65.88
78623;BME280;67943;54.412;9.502;2023-06-14T06:25:57;101999.06;;;18.51;65.25
78623;BME280;67943;54.412;9.502;2023-06-14T06:30:58;101997.81;;;18.63;64.88
78623;BME280;67943;54.412;9.502;2023-06-14T06:36:00;102003.03;;;18.89;64.44
78623;BME280;67943;54.412;9.502;2023-06-14T06:41:03;102012.91;;;19.10;62.07
78623;BME280;67943;54.412;9.502;2023-06-14T06:46:05;102009.63;;;19.27;61.35
78623;BME280;67943;54.412;9.502;2023-06-14T06:51:06;102018.91;;;19.39;60.55
78623;BME280;67943;54.412;9.502;2023-06-14T06:56:09;102029.81;;;19.58;60.45
78623;BME280;67943;54.412;9.502;2023-06-14T07:01:11;102035.28;;;19.76;59.90
78623;BME280;67943;54.412;9.502;2023-06-14T07:06:13;102036.75;;;20.05;58.79
78623;BME280;67943;54.412;9.502;2023-06-14T07:11:20;102034.78;;;20.31;58.02
78623;BME280;67943;54.412;9.502;2023-06-14T07:16:21;102027.44;;;20.36;57.45
78623;BME280;67943;54.412;9.502;2023-06-14T07:21:23;102053.16;;;20.40;57.77
78623;BME280;67943;54.412;9.502;2023-06-14T07:26:27;102040.25;;;20.70;56.44
78623;BME280;67943;54.412;9.502;2023-06-14T07:31:28;102045.50;;;20.92;56.37
78623;BME280;67943;54.412;9.502;2023-06-14T07:36:30;102044.44;;;20.96;56.29
78623;BME280;67943;54.412;9.502;2023-06-14T07:41:33;102044.16;;;21.22;55.21
78623;BME280;67943;54.412;9.502;2023-06-14T07:46:34;102042.66;;;21.35;53.99
78623;BME280;67943;54.412;9.502;2023-06-14T07:51:36;102030.25;;;21.51;53.78
78623;BME280;67943;54.412;9.502;2023-06-14T07:56:39;102036.16;;;21.77;52.11
78623;BME280;67943;54.412;9.502;2023-06-14T08:01:40;102044.25;;;21.94;49.88
78623;BME280;67943;54.412;9.502;2023-06-14T08:06:48;102042.81;;;22.06;50.18
78623;BME280;67943;54.412;9.502;2023-06-14T08:11:51;102035.63;;;22.23;50.05
78623;BME280;67943;54.412;9.502;2023-06-14T08:16:52;102037.84;;;22.33;48.70
78623;BME280;67943;54.412;9.502;2023-06-14T08:21:54;102032.31;;;22.53;49.05
78623;BME280;67943;54.412;9.502;2023-06-14T08:26:57;102029.47;;;22.73;48.05
78623;BME280;67943;54.412;9.502;2023-06-14T08:32:01;102032.31;;;22.87;45.81
78623;BME280;67943;54.412;9.502;2023-06-14T08:37:03;102021.47;;;23.06;45.22
78623;BME280;67943;54.412;9.502;2023-06-14T08:42:08;102031.84;;;23.12;45.77
78623;BME280;67943;54.412;9.502;2023-06-14T08:47:10;102025.81;;;23.40;45.62
78623;BME280;67943;54.412;9.502;2023-06-14T08:52:13;102038.16;;;23.76;43.04
78623;BME280;67943;54.412;9.502;2023-06-14T08:57:16;102036.78;;;23.69;44.43
78623;BME280;67943;54.412;9.502;2023-06-14T09:02:17;102038.88;;;23.95;44.34
78623;BME280;67943;54.412;9.502;2023-06-14T09:07:19;102025.13;;;24.00;43.96
78623;BME280;67943;54.412;9.502;2023-06-14T09:12:22;102026.13;;;24.29;42.80
78623;BME280;67943;54.412;9.502;2023-06-14T09:17:24;102026.63;;;24.35;43.52
78623;BME280;67943;54.412;9.502;2023-06-14T09:22:25;102031.91;;;24.67;41.60
78623;BME280;67943;54.412;9.502;2023-06-14T09:27:28;102030.97;;;24.82;42.23
78623;BME280;67943;54.412;9.502;2023-06-14T09:32:30;102037.25;;;25.11;40.68
78623;BME280;67943;54.412;9.502;2023-06-14T09:37:32;102041.84;;;25.37;40.14
78623;BME280;67943;54.412;9.502;2023-06-14T09:42:37;102039.69;;;25.42;39.49
78623;BME280;67943;54.412;9.502;2023-06-14T09:47:39;102030.09;;;25.67;38.19
78623;BME280;67943;54.412;9.502;2023-06-14T09:52:43;102039.06;;;25.80;37.38
78623;BME280;67943;54.412;9.502;2023-06-14T09:57:47;102039.25;;;25.91;37.72
78623;BME280;67943;54.412;9.502;2023-06-14T10:02:54;102042.59;;;26.21;35.44
78623;BME280;67943;54.412;9.502;2023-06-14T10:08:00;102029.13;;;26.34;36.43
78623;BME280;67943;54.412;9.502;2023-06-14T10:13:06;102030.09;;;26.33;34.68
78623;BME280;67943;54.412;9.502;2023-06-14T10:18:14;102017.81;;;26.42;35.65
78623;BME280;67943;54.412;9.502;2023-06-14T10:23:22;102025.84;;;26.56;34.13
78623;BME280;67943;54.412;9.502;2023-06-14T10:28:26;102021.31;;;26.69;35.66
78623;BME280;67943;54.412;9.502;2023-06-14T10:33:27;102012.66;;;26.89;36.10
78623;BME280;67943;54.412;9.502;2023-06-14T10:38:30;102019.56;;;26.94;36.25
78623;BME280;67943;54.412;9.502;2023-06-14T10:43:34;102019.16;;;27.00;33.87
78623;BME280;67943;54.412;9.502;2023-06-14T10:48:40;102009.66;;;27.07;33.26
78623;BME280;67943;54.412;9.502;2023-06-14T10:53:42;102010.16;;;27.24;32.23
78623;BME280;67943;54.412;9.502;2023-06-14T10:58:45;102011.91;;;27.49;32.41
78623;BME280;67943;54.412;9.502;2023-06-14T11:03:50;102008.88;;;27.67;32.83
78623;BME280;67943;54.412;9.502;2023-06-14T11:09:15;102005.66;;;27.62;32.73
78623;BME280;67943;54.412;9.502;2023-06-14T11:14:22;102013.34;;;27.79;31.88
78623;BME280;67943;54.412;9.502;2023-06-14T11:19:24;102012.78;;;27.86;31.74
78623;BME280;67943;54.412;9.502;2023-06-14T11:24:28;101995.16;;;27.81;31.63
78623;BME280;67943;54.412;9.502;2023-06-14T11:29:31;101987.31;;;28.13;31.14
78623;BME280;67943;54.412;9.502;2023-06-14T11:34:33;101993.97;;;28.20;31.09
78623;BME280;67943;54.412;9.502;2023-06-14T11:39:34;101980.38;;;28.33;30.16
78623;BME280;67943;54.412;9.502;2023-06-14T11:44:37;101985.78;;;28.33;30.11
78623;BME280;67943;54.412;9.502;2023-06-14T11:49:39;101979.50;;;28.32;30.45
78623;BME280;67943;54.412;9.502;2023-06-14T11:54:40;101980.78;;;28.62;30.14
78623;BME280;67943;54.412;9.502;2023-06-14T11:59:44;101982.66;;;28.61;30.05
78623;BME280;67943;54.412;9.502;2023-06-14T12:04:47;101974.53;;;28.72;29.39
78623;BME280;67943;54.412;9.502;2023-06-14T12:10:04;101973.56;;;28.73;29.39
78623;BME280;67943;54.412;9.502;2023-06-14T12:15:09;101981.66;;;28.62;28.87
78623;BME280;67943;54.412;9.502;2023-06-14T12:20:13;101977.84;;;28.53;28.94
78623;BME280;67943;54.412;9.502;2023-06-14T12:25:27;101973.81;;;28.70;28.18
78623;BME280;67943;54.412;9.502;2023-06-14T12:30:30;101973.56;;;28.73;28.08
78623;BME280;67943;54.412;9.502;2023-06-14T12:35:31;101961.50;;;28.77;28.02
78623;BME280;67943;54.412;9.502;2023-06-14T12:40:33;101960.22;;;28.59;28.56
78623;BME280;67943;54.412;9.502;2023-06-14T12:45:37;101957.78;;;28.45;28.53
78623;BME280;67943;54.412;9.502;2023-06-14T12:50:38;101969.22;;;28.48;28.70
78623;BME280;67943;54.412;9.502;2023-06-14T12:55:40;101962.19;;;28.46;28.30
78623;BME280;67943;54.412;9.502;2023-06-14T13:00:43;101956.13;;;28.31;28.50
78623;BME280;67943;54.412;9.502;2023-06-14T13:05:44;101958.72;;;28.21;27.54
78623;BME280;67943;54.412;9.502;2023-06-14T13:10:46;101958.59;;;28.23;27.46
78623;BME280;67943;54.412;9.502;2023-06-14T13:15:49;101945.56;;;28.04;28.53
78623;BME280;67943;54.412;9.502;2023-06-14T13:20:51;101948.31;;;28.15;28.37
78623;BME280;67943;54.412;9.502;2023-06-14T13:25:52;101947.06;;;28.08;28.57
78623;BME280;67943;54.412;9.502;2023-06-14T13:30:55;101938.03;;;28.20;27.81
78623;BME280;67943;54.412;9.502;2023-06-14T13:35:57;101929.91;;;27.85;27.84
78623;BME280;67943;54.412;9.502;2023-06-14T13:40:58;101932.53;;;27.98;27.77
78623;BME280;67943;54.412;9.502;2023-06-14T13:46:01;101938.66;;;27.89;27.16
78623;BME280;67943;54.412;9.502;2023-06-14T13:51:02;101941.25;;;27.90;26.82
78623;BME280;67943;54.412;9.502;2023-06-14T13:56:05;101932.38;;;27.88;25.34
78623;BME280;67943;54.412;9.502;2023-06-14T14:01:08;101931.22;;;27.80;26.56
78623;BME280;67943;54.412;9.502;2023-06-14T14:06:10;101938.13;;;27.84;25.70
78623;BME280;67943;54.412;9.502;2023-06-14T14:11:11;101929.25;;;27.71;24.59
78623;BME280;67943;54.412;9.502;2023-06-14T14:16:15;101929.72;;;27.76;24.16
78623;BME280;67943;54.412;9.502;2023-06-14T14:21:16;101922.91;;;27.59;24.08
78623;BME280;67943;54.412;9.502;2023-06-14T14:26:18;101919.44;;;27.57;23.77
78623;BME280;67943;54.412;9.502;2023-06-14T14:31:20;101917.78;;;27.67;25.17
78623;BME280;67943;54.412;9.502;2023-06-14T14:36:22;101919.13;;;27.62;24.73
78623;BME280;67943;54.412;9.502;2023-06-14T14:41:23;101915.22;;;27.66;25.24
78623;BME280;67943;54.412;9.502;2023-06-14T14:46:27;101907.69;;;27.45;26.69
78623;BME280;67943;54.412;9.502;2023-06-14T14:51:28;101907.97;;;27.53;27.87
78623;BME280;67943;54.412;9.502;2023-06-14T14:56:30;101923.13;;;27.32;25.98
78623;BME280;67943;54.412;9.502;2023-06-14T15:01:32;101914.69;;;27.24;27.35
78623;BME280;67943;54.412;9.502;2023-06-14T15:06:34;101927.69;;;27.19;25.49
78623;BME280;67943;54.412;9.502;2023-06-14T15:11:36;101922.78;;;27.00;25.65
78623;BME280;67943;54.412;9.502;2023-06-14T15:16:39;101921.47;;;27.06;26.19
78623;BME280;67943;54.412;9.502;2023-06-14T15:21:41;101915.19;;;26.92;26.41
78623;BME280;67943;54.412;9.502;2023-06-14T15:26:42;101916.31;;;26.77;25.37
78623;BME280;67943;54.412;9.502;2023-06-14T15:31:45;101916.75;;;26.71;24.11
78623;BME280;67943;54.412;9.502;2023-06-14T15:36:47;101913.50;;;26.66;24.67
78623;BME280;67943;54.412;9.502;2023-06-14T15:41:49;101912.00;;;26.62;25.94
78623;BME280;67943;54.412;9.502;2023-06-14T15:46:53;101914.81;;;26.61;24.77
78623;BME280;67943;54.412;9.502;2023-06-14T15:51:55;101907.28;;;26.53;24.16
78623;BME280;67943;54.412;9.502;2023-06-14T15:56:57;101913.75;;;26.38;27.90
78623;BME280;67943;54.412;9.502;2023-06-14T16:02:00;101916.03;;;26.44;28.32
78623;BME280;67943;54.412;9.502;2023-06-14T16:07:01;101903.66;;;26.14;29.57
78623;BME280;67943;54.412;9.502;2023-06-14T16:12:03;101902.03;;;26.12;30.17
78623;BME280;67943;54.412;9.502;2023-06-14T16:17:07;101894.69;;;26.01;30.75
78623;BME280;67943;54.412;9.502;2023-06-14T16:22:08;101890.81;;;26.05;30.44
78623;BME280;67943;54.412;9.502;2023-06-14T16:27:10;101901.56;;;25.80;31.16
78623;BME280;67943;54.412;9.502;2023-06-14T16:32:14;101893.47;;;25.80;30.81
78623;BME280;67943;54.412;9.502;2023-06-14T16:37:15;101891.84;;;25.77;30.83
78623;BME280;67943;54.412;9.502;2023-06-14T16:42:17;101894.09;;;25.71;29.37
78623;BME280;67943;54.412;9.502;2023-06-14T16:47:19;101904.94;;;25.56;29.88
78623;BME280;67943;54.412;9.502;2023-06-14T16:52:21;101895.28;;;25.40;29.33
78623;BME280;67943;54.412;9.502;2023-06-14T16:57:22;101898.78;;;25.28;28.74
78623;BME280;67943;54.412;9.502;2023-06-14T17:02:25;101903.59;;;25.22;29.10
78623;BME280;67943;54.412;9.502;2023-06-14T17:07:27;101902.94;;;25.19;29.46
78623;BME280;67943;54.412;9.502;2023-06-14T17:12:28;101901.28;;;25.16;30.04
78623;BME280;67943;54.412;9.502;2023-06-14T17:17:32;101917.81;;;24.98;30.32
78623;BME280;67943;54.412;9.502;2023-06-14T17:22:33;101914.88;;;24.86;29.89
78623;BME280;67943;54.412;9.502;2023-06-14T17:27:35;101908.84;;;24.83;29.81
78623;BME280;67943;54.412;9.502;2023-06-14T17:32:38;101911.34;;;24.72;30.80
78623;BME280;67943;54.412;9.502;2023-06-14T17:37:39;101915.31;;;24.52;30.40
78623;BME280;67943;54.412;9.502;2023-06-14T17:42:41;101916.66;;;24.45;30.64
78623;BME280;67943;54.412;9.502;2023-06-14T17:47:44;101923.84;;;24.44;31.06
78623;BME280;67943;54.412;9.502;2023-06-14T17:52:45;101936.28;;;24.17;32.55
78623;BME280;67943;54.412;9.502;2023-06-14T17:57:47;101927.28;;;24.02;32.26
78623;BME280;67943;54.412;9.502;2023-06-14T18:02:50;101933.41;;;23.90;32.81
78623;BME280;67943;54.412;9.502;2023-06-14T18:07:51;101937.09;;;23.73;33.71
78623;BME280;67943;54.412;9.502;2023-06-14T18:12:53;101934.09;;;23.64;34.44
78623;BME280;67943;54.412;9.502;2023-06-14T18:17:56;101930.69;;;23.44;35.27
78623;BME280;67943;54.412;9.502;2023-06-14T18:22:57;101927.75;;;23.33;36.06
78623;BME280;67943;54.412;9.502;2023-06-14T18:27:59;101935.22;;;23.28;36.16
78623;BME280;67943;54.412;9.502;2023-06-14T18:33:02;101950.78;;;23.21;37.15
78623;BME280;67943;54.412;9.502;2023-06-14T18:38:03;101933.75;;;23.07;37.96
78623;BME280;67943;54.412;9.502;2023-06-14T18:43:06;101930.69;;;22.97;38.46
78623;BME280;67943;54.412;9.502;2023-06-14T18:48:09;101926.84;;;22.85;39.21
78623;BME280;67943;54.412;9.502;2023-06-14T18:53:10;101936.34;;;22.75;39.62
78623;BME280;67943;54.412;9.502;2023-06-14T18:58:12;101939.69;;;22.63;39.87
78623;BME280;67943;54.412;9.502;2023-06-14T19:03:14;101942.69;;;22.57;40.40
78623;BME280;67943;54.412;9.502;2023-06-14T19:08:16;101941.63;;;22.44;41.15
78623;BME280;67943;54.412;9.502;2023-06-14T19:13:18;101935.00;;;22.34;41.74
78623;BME280;67943;54.412;9.502;2023-06-14T19:18:20;101929.25;;;22.24;42.58
78623;BME280;67943;54.412;9.502;2023-06-14T19:23:22;101941.50;;;22.12;42.96
78623;BME280;67943;54.412;9.502;2023-06-14T19:28:24;101943.78;;;22.03;43.34
78623;BME280;67943;54.412;9.502;2023-06-14T19:33:28;101939.75;;;21.94;43.47
78623;BME280;67943;54.412;9.502;2023-06-14T19:38:29;101936.66;;;21.84;43.96
78623;BME280;67943;54.412;9.502;2023-06-14T19:43:32;101945.16;;;21.75;44.59
78623;BME280;67943;54.412;9.502;2023-06-14T19:48:35;101959.16;;;21.63;44.67
78623;BME280;67943;54.412;9.502;2023-06-14T19:53:36;101951.94;;;21.46;45.80
78623;BME280;67943;54.412;9.502;2023-06-14T19:58:38;101961.66;;;21.30;45.73
78623;BME280;67943;54.412;9.502;2023-06-14T20:03:41;101968.31;;;21.21;46.38
78623;BME280;67943;54.412;9.502;2023-06-14T20:08:44;101968.72;;;21.12;46.61
78623;BME280;67943;54.412;9.502;2023-06-14T20:13:45;101972.06;;;20.99;47.02
78623;BME280;67943;54.412;9.502;2023-06-14T20:18:48;101967.41;;;20.83;47.51
78623;BME280;67943;54.412;9.502;2023-06-14T20:23:50;101971.84;;;20.64;48.22
78623;BME280;67943;54.412;9.502;2023-06-14T20:28:51;101973.19;;;20.34;48.93
78623;BME280;67943;54.412;9.502;2023-06-14T20:33:54;101976.47;;;19.98;49.70
78623;BME280;67943;54.412;9.502;2023-06-14T20:38:57;101982.22;;;19.67;50.17
78623;BME280;67943;54.412;9.502;2023-06-14T20:44:00;101978.88;;;19.39;51.12
78623;BME280;67943;54.412;9.502;2023-06-14T20:49:02;101982.63;;;19.11;51.83
78623;BME280;67943;54.412;9.502;2023-06-14T20:54:04;101978.41;;;18.82;53.04
78623;BME280;67943;54.412;9.502;2023-06-14T20:59:05;101984.31;;;18.67;53.55
78623;BME280;67943;54.412;9.502;2023-06-14T21:04:08;101975.84;;;18.54;53.75
78623;BME280;67943;54.412;9.502;2023-06-14T21:09:10;101967.53;;;18.39;54.04
78623;BME280;67943;54.412;9.502;2023-06-14T21:14:13;101978.03;;;18.18;54.59
78623;BME280;67943;54.412;9.502;2023-06-14T21:19:16;101977.41;;;18.10;54.78
78623;BME280;67943;54.412;9.502;2023-06-14T21:24:17;101982.13;;;18.02;55.24
78623;BME280;67943;54.412;9.502;2023-06-14T21:29:19;101979.06;;;17.88;55.32
78623;BME280;67943;54.412;9.502;2023-06-14T21:34:21;101976.84;;;17.74;55.74
78623;BME280;67943;54.412;9.502;2023-06-14T21:39:23;101971.81;;;17.64;55.77
78623;BME280;67943;54.412;9.502;2023-06-14T21:44:24;101972.38;;;17.47;56.45
78623;BME280;67943;54.412;9.502;2023-06-14T21:49:27;101974.53;;;17.34;56.84
78623;BME280;67943;54.412;9.502;2023-06-14T21:54:28;101970.56;;;17.19;56.89
78623;BME280;67943;54.412;9.502;2023-06-14T21:59:30;101976.28;;;17.06;57.38
78623;BME280;67943;54.412;9.502;2023-06-14T22:04:33;101967.78;;;16.95;58.09
78623;BME280;67943;54.412;9.502;2023-06-14T22:09:35;101969.16;;;16.77;58.39
78623;BME280;67943;54.412;9.502;2023-06-14T22:14:37;101980.03;;;16.69;58.53
78623;BME280;67943;54.412;9.502;2023-06-14T22:19:40;101983.91;;;16.56;58.89
78623;BME280;67943;54.412;9.502;2023-06-14T22:24:42;101980.56;;;16.48;58.91
78623;BME280;67943;54.412;9.502;2023-06-14T22:29:43;101980.97;;;16.34;59.38
78623;BME280;67943;54.412;9.502;2023-06-14T22:34:46;101982.06;;;16.26;60.00
78623;BME280;67943;54.412;9.502;2023-06-14T22:39:48;101984.03;;;16.17;60.22
78623;BME280;67943;54.412;9.502;2023-06-14T22:44:49;101982.47;;;16.10;60.30
78623;BME280;67943;54.412;9.502;2023-06-14T22:49:52;101991.59;;;16.00;60.41
78623;BME280;67943;54.412;9.502;2023-06-14T22:54:54;101977.66;;;15.91;60.46
78623;BME280;67943;54.412;9.502;2023-06-14T22:59:56;101979.69;;;15.81;60.65
78623;BME280;67943;54.412;9.502;2023-06-14T23:05:00;101978.16;;;15.71;61.10
78623;BME280;67943;54.412;9.502;2023-06-14T23:10:02;101978.50;;;15.56;61.56
78623;BME280;67943;54.412;9.502;2023-06-14T23:15:05;101975.16;;;15.47;61.87
78623;BME280;67943;54.412;9.502;2023-06-14T23:20:10;101974.34;;;15.44;62.07
78623;BME280;67943;54.412;9.502;2023-06-14T23:25:13;101975.34;;;15.38;62.19
78623;BME280;67943;54.412;9.502;2023-06-14T23:30:14;101974.50;;;15.36;62.43
78623;BME280;67943;54.412;9.502;2023-06-14T23:35:17;101971.72;;;15.42;62.82
78623;BME280;67943;54.412;9.502;2023-06-14T23:40:19;101970.81;;;15.43;62.85
78623;BME280;67943;54.412;9.502;2023-06-14T23:45:20;101975.44;;;15.34;62.91
78623;BME280;67943;54.412;9.502;2023-06-14T23:50:26;101973.19;;;15.17;63.24
78623;BME280;67943;54.412;9.502;2023-06-14T23:55:27;101965.47;;;15.05;63.45
